sensor_id;sensor_type;location;lat;lon;timestamp;temperature;humidity
16118;DHT22;8163;50.118;5.342;2023-08-12T00:01:17;20.10;1.00
16118;DHT22;8163;50.118;5.342;2023-08-12T00:03:47;20.10;1.00
16118;DHT22;8163;50.118;5.342;2023-08-12T00:06:15;20.10;1.00
16118;DHT22;8163;50.118;5.342;2023-08-12T00:08:42;20.00;1.00
16118;DHT22;8163;50.118;5.342;2023-08-12T00:11:10;20.00;1.00
16118;DHT22;8163;50.118;5.342;2023-08-12T00:13:37;20.00;1.00
16118;DHT22;8163;50.118;5.342;2023-08-12T00:16:05;20.00;1.00
16118;DHT22;8163;50.118;5.342;2023-08-12T00:18:32;20.00;19.60
16118;DHT22;8163;50.118;5.342;2023-08-12T00:21:06;19.90;88.30
16118;DHT22;8163;50.118;5.342;2023-08-12T00:23:36;19.80;99.90
16118;DHT22;8163;50.118;5.342;2023-08-12T00:26:04;19.70;99.90
16118;DHT22;8163;50.118;5.342;2023-08-12T00:28:31;19.80;99.90
16118;DHT22;8163;50.118;5.342;2023-08-12T00:30:58;19.80;99.90
16118;DHT22;8163;50.118;5.342;2023-08-12T00:33:26;19.90;99.90
16118;DHT22;8163;50.118;5.342;2023-08-12T00:35:54;19.90;99.90
16118;DHT22;8163;50.118;5.342;2023-08-12T00:38:21;19.70;99.90
16118;DHT22;8163;50.118;5.342;2023-08-12T00:40:48;19.70;99.90
16118;DHT22;8163;50.118;5.342;2023-08-12T00:43:15;19.70;99.90
16118;DHT22;8163;50.118;5.342;2023-08-12T00:45:42;19.70;99.90
16118;DHT22;8163;50.118;5.342;2023-08-12T00:48:10;19.70;1.00
16118;DHT22;8163;50.118;5.342;2023-08-12T00:50:39;19.70;1.00
16118;DHT22;8163;50.118;5.342;2023-08-12T00:53:07;19.70;1.00
16118;DHT22;8163;50.118;5.342;2023-08-12T00:55:35;19.70;1.00
16118;DHT22;8163;50.118;5.342;2023-08-12T00:58:03;19.70;1.00
16118;DHT22;8163;50.118;5.342;2023-08-12T01:00:31;19.80;1.00
16118;DHT22;8163;50.118;5.342;2023-08-12T01:03:00;19.80;1.00
16118;DHT22;8163;50.118;5.342;2023-08-12T01:05:30;19.90;1.00
16118;DHT22;8163;50.118;5.342;2023-08-12T01:07:59;19.90;1.00
16118;DHT22;8163;50.118;5.342;2023-08-12T01:10:29;19.90;1.00
16118;DHT22;8163;50.118;5.342;2023-08-12T01:13:07;19.90;1.00
16118;DHT22;8163;50.118;5.342;2023-08-12T01:15:37;19.90;1.00
16118;DHT22;8163;50.118;5.342;2023-08-12T01:18:05;19.90;1.00
16118;DHT22;8163;50.118;5.342;2023-08-12T01:20:34;20.00;1.00
16118;DHT22;8163;50.118;5.342;2023-08-12T01:23:10;20.00;1.00
16118;DHT22;8163;50.118;5.342;2023-08-12T01:25:37;20.00;1.00
16118;DHT22;8163;50.118;5.342;2023-08-12T01:28:05;20.00;1.00
16118;DHT22;8163;50.118;5.342;2023-08-12T01:30:33;19.90;1.00
16118;DHT22;8163;50.118;5.342;2023-08-12T01:33:07;19.90;1.00
16118;DHT22;8163;50.118;5.342;2023-08-12T01:35:38;19.90;1.00
16118;DHT22;8163;50.118;5.342;2023-08-12T01:38:08;19.80;1.00
16118;DHT22;8163;50.118;5.342;2023-08-12T01:40:36;19.80;1.00
16118;DHT22;8163;50.118;5.342;2023-08-12T01:43:05;19.80;1.00
16118;DHT22;8163;50.118;5.342;2023-08-12T01:45:33;19.80;1.00
16118;DHT22;8163;50.118;5.342;2023-08-12T01:48:00;19.80;1.00
16118;DHT22;8163;50.118;5.342;2023-08-12T01:50:27;19.80;1.00
16118;DHT22;8163;50.118;5.342;2023-08-12T01:52:54;19.80;1.00
16118;DHT22;8163;50.118;5.342;2023-08-12T01:55:23;19.70;1.00
16118;DHT22;8163;50.118;5.342;2023-08-12T01:57:50;19.70;1.00
16118;DHT22;8163;50.118;5.342;2023-08-12T02:00:17;19.70;1.00
16118;DHT22;8163;50.118;5.342;2023-08-12T02:02:44;19.70;1.00
16118;DHT22;8163;50.118;5.342;2023-08-12T02:05:13;19.70;1.00
16118;DHT22;8163;50.118;5.342;2023-08-12T02:07:40;19.70;1.00
16118;DHT22;8163;50.118;5.342;2023-08-12T02:10:07;19.60;1.00
16118;DHT22;8163;50.118;5.342;2023-08-12T02:12:36;19.50;1.00
16118;DHT22;8163;50.118;5.342;2023-08-12T02:15:05;19.60;1.00
16118;DHT22;8163;50.118;5.342;2023-08-12T02:17:32;19.60;1.00
16118;DHT22;8163;50.118;5.342;2023-08-12T02:19:59;19.60;1.00
16118;DHT22;8163;50.118;5.342;2023-08-12T02:22:26;19.60;1.00
16118;DHT22;8163;50.118;5.342;2023-08-12T02:24:55;19.60;1.00
16118;DHT22;8163;50.118;5.342;2023-08-12T02:27:22;19.60;1.00
16118;DHT22;8163;50.118;5.342;2023-08-12T02:29:50;19.60;1.00
16118;DHT22;8163;50.118;5.342;2023-08-12T02:32:17;19.60;1.00
16118;DHT22;8163;50.118;5.342;2023-08-12T02:34:45;19.60;1.00
16118;DHT22;8163;50.118;5.342;2023-08-12T02:37:12;19.60;69.80
16118;DHT22;8163;50.118;5.342;2023-08-12T02:39:39;19.60;99.90
16118;DHT22;8163;50.118;5.342;2023-08-12T02:42:06;19.60;99.90
16118;DHT22;8163;50.118;5.342;2023-08-12T02:44:33;19.60;99.90
16118;DHT22;8163;50.118;5.342;2023-08-12T02:47:02;19.60;99.90
16118;DHT22;8163;50.118;5.342;2023-08-12T02:49:29;19.60;99.90
16118;DHT22;8163;50.118;5.342;2023-08-12T02:51:56;19.50;99.90
16118;DHT22;8163;50.118;5.342;2023-08-12T02:54:23;19.50;99.90
16118;DHT22;8163;50.118;5.342;2023-08-12T02:56:50;19.50;99.90
16118;DHT22;8163;50.118;5.342;2023-08-12T02:59:17;19.60;99.90
16118;DHT22;8163;50.118;5.342;2023-08-12T03:01:44;19.50;99.90
16118;DHT22;8163;50.118;5.342;2023-08-12T03:04:13;19.50;99.90
16118;DHT22;8163;50.118;5.342;2023-08-12T03:06:40;19.50;99.90
16118;DHT22;8163;50.118;5.342;2023-08-12T03:09:07;19.50;99.90
16118;DHT22;8163;50.118;5.342;2023-08-12T03:11:34;19.40;99.90
16118;DHT22;8163;50.118;5.342;2023-08-12T03:14:01;19.40;99.90
16118;DHT22;8163;50.118;5.342;2023-08-12T03:16:28;19.40;99.90
16118;DHT22;8163;50.118;5.342;2023-08-12T03:18:56;19.40;99.90
16118;DHT22;8163;50.118;5.342;2023-08-12T03:21:24;19.30;99.90
16118;DHT22;8163;50.118;5.342;2023-08-12T03:23:51;19.30;99.90
16118;DHT22;8163;50.118;5.342;2023-08-12T03:26:19;19.30;99.90
16118;DHT22;8163;50.118;5.342;2023-08-12T03:28:46;19.30;99.90
16118;DHT22;8163;50.118;5.342;2023-08-12T03:31:13;19.30;99.90
16118;DHT22;8163;50.118;5.342;2023-08-12T03:33:40;19.30;99.90
16118;DHT22;8163;50.118;5.342;2023-08-12T03:36:07;19.20;99.90
16118;DHT22;8163;50.118;5.342;2023-08-12T03:38:36;19.10;99.90
16118;DHT22;8163;50.118;5.342;2023-08-12T03:41:03;19.10;99.90
16118;DHT22;8163;50.118;5.342;2023-08-12T03:43:30;19.10;99.90
16118;DHT22;8163;50.118;5.342;2023-08-12T03:45:59;19.10;99.90
16118;DHT22;8163;50.118;5.342;2023-08-12T03:48:26;19.10;99.90
16118;DHT22;8163;50.118;5.342;2023-08-12T03:50:53;19.10;99.90
16118;DHT22;8163;50.118;5.342;2023-08-12T03:53:20;19.10;99.90
16118;DHT22;8163;50.118;5.342;2023-08-12T03:55:49;19.00;99.90
16118;DHT22;8163;50.118;5.342;2023-08-12T03:58:16;19.10;99.90
16118;DHT22;8163;50.118;5.342;2023-08-12T04:00:43;19.00;99.90
16118;DHT22;8163;50.118;5.342;2023-08-12T04:03:11;19.00;99.90
16118;DHT22;8163;50.118;5.342;2023-08-12T04:05:46;19.00;99.90
16118;DHT22;8163;50.118;5.342;2023-08-12T04:08:13;19.00;99.90
16118;DHT22;8163;50.118;5.342;2023-08-12T04:10:40;19.00;99.90
16118;DHT22;8163;50.118;5.342;2023-08-12T04:13:12;18.90;99.90
16118;DHT22;8163;50.118;5.342;2023-08-12T04:15:39;18.90;99.90
16118;DHT22;8163;50.118;5.342;2023-08-12T04:18:06;18.90;99.90
16118;DHT22;8163;50.118;5.342;2023-08-12T04:20:33;18.90;99.90
16118;DHT22;8163;50.118;5.342;2023-08-12T04:23:00;18.80;99.90
16118;DHT22;8163;50.118;5.342;2023-08-12T04:25:27;18.80;99.90
16118;DHT22;8163;50.118;5.342;2023-08-12T04:27:54;18.80;99.90
16118;DHT22;8163;50.118;5.342;2023-08-12T04:30:23;18.80;99.90
16118;DHT22;8163;50.118;5.342;2023-08-12T04:32:50;18.80;99.90
16118;DHT22;8163;50.118;5.342;2023-08-12T04:35:17;18.70;99.90
16118;DHT22;8163;50.118;5.342;2023-08-12T04:37:44;18.70;99.90
16118;DHT22;8163;50.118;5.342;2023-08-12T04:40:11;18.70;99.90
16118;DHT22;8163;50.118;5.342;2023-08-12T04:42:38;18.70;99.90
16118;DHT22;8163;50.118;5.342;2023-08-12T04:45:06;18.60;99.90
16118;DHT22;8163;50.118;5.342;2023-08-12T04:47:35;18.60;99.90
16118;DHT22;8163;50.118;5.342;2023-08-12T04:50:05;18.50;99.90
16118;DHT22;8163;50.118;5.342;2023-08-12T04:52:32;18.60;99.90
16118;DHT22;8163;50.118;5.342;2023-08-12T04:54:59;18.50;99.90
16118;DHT22;8163;50.118;5.342;2023-08-12T04:57:26;18.50;99.90
16118;DHT22;8163;50.118;5.342;2023-08-12T04:59:54;18.50;99.90
16118;DHT22;8163;50.118;5.342;2023-08-12T05:02:21;18.40;99.90
16118;DHT22;8163;50.118;5.342;2023-08-12T05:04:51;18.40;99.90
16118;DHT22;8163;50.118;5.342;2023-08-12T05:07:18;18.40;99.90
16118;DHT22;8163;50.118;5.342;2023-08-12T05:09:45;18.40;99.90
16118;DHT22;8163;50.118;5.342;2023-08-12T05:12:12;18.40;99.90
16118;DHT22;8163;50.118;5.342;2023-08-12T05:14:40;18.40;99.90
16118;DHT22;8163;50.118;5.342;2023-08-12T05:17:07;18.40;99.90
16118;DHT22;8163;50.118;5.342;2023-08-12T05:19:34;18.30;99.90
16118;DHT22;8163;50.118;5.342;2023-08-12T05:22:03;18.30;99.90
16118;DHT22;8163;50.118;5.342;2023-08-12T05:24:30;18.30;99.90
16118;DHT22;8163;50.118;5.342;2023-08-12T05:26:57;18.30;99.90
16118;DHT22;8163;50.118;5.342;2023-08-12T05:29:24;18.30;99.90
16118;DHT22;8163;50.118;5.342;2023-08-12T05:31:51;18.30;99.90
16118;DHT22;8163;50.118;5.342;2023-08-12T05:34:18;18.20;99.90
16118;DHT22;8163;50.118;5.342;2023-08-12T05:36:45;18.20;99.90
16118;DHT22;8163;50.118;5.342;2023-08-12T05:39:14;18.20;99.90
16118;DHT22;8163;50.118;5.342;2023-08-12T05:41:42;18.20;99.90
16118;DHT22;8163;50.118;5.342;2023-08-12T05:44:09;18.20;99.90
16118;DHT22;8163;50.118;5.342;2023-08-12T05:46:36;18.20;99.90
16118;DHT22;8163;50.118;5.342;2023-08-12T05:49:03;18.20;99.90
16118;DHT22;8163;50.118;5.342;2023-08-12T05:51:30;18.20;99.90
16118;DHT22;8163;50.118;5.342;2023-08-12T05:53:57;18.20;99.90
16118;DHT22;8163;50.118;5.342;2023-08-12T05:56:26;18.10;99.90
16118;DHT22;8163;50.118;5.342;2023-08-12T05:58:53;18.20;99.90
16118;DHT22;8163;50.118;5.342;2023-08-12T06:01:20;18.20;99.90
16118;DHT22;8163;50.118;5.342;2023-08-12T06:03:47;18.30;99.90
16118;DHT22;8163;50.118;5.342;2023-08-12T06:06:14;18.30;99.90
16118;DHT22;8163;50.118;5.342;2023-08-12T06:08:41;18.30;99.90
16118;DHT22;8163;50.118;5.342;2023-08-12T06:11:08;18.20;99.90
16118;DHT22;8163;50.118;5.342;2023-08-12T06:13:37;18.30;99.90
16118;DHT22;8163;50.118;5.342;2023-08-12T06:16:04;18.30;99.90
16118;DHT22;8163;50.118;5.342;2023-08-12T06:18:32;18.30;99.90
16118;DHT22;8163;50.118;5.342;2023-08-12T06:20:59;18.30;99.90
16118;DHT22;8163;50.118;5.342;2023-08-12T06:23:27;18.40;99.90
16118;DHT22;8163;50.118;5.342;2023-08-12T06:25:55;18.40;99.90
16118;DHT22;8163;50.118;5.342;2023-08-12T06:28:22;18.40;99.90
16118;DHT22;8163;50.118;5.342;2023-08-12T06:30:51;18.40;99.90
16118;DHT22;8163;50.118;5.342;2023-08-12T06:33:18;18.40;99.90
16118;DHT22;8163;50.118;5.342;2023-08-12T06:35:45;18.40;99.90
16118;DHT22;8163;50.118;5.342;2023-08-12T06:38:12;18.40;99.90
16118;DHT22;8163;50.118;5.342;2023-08-12T06:40:40;18.40;99.90
16118;DHT22;8163;50.118;5.342;2023-08-12T06:43:07;18.50;99.90
16118;DHT22;8163;50.118;5.342;2023-08-12T06:45:35;18.50;99.90
16118;DHT22;8163;50.118;5.342;2023-08-12T06:48:04;18.50;99.90
16118;DHT22;8163;50.118;5.342;2023-08-12T06:50:31;18.50;99.90
16118;DHT22;8163;50.118;5.342;2023-08-12T06:52:59;18.60;99.90
16118;DHT22;8163;50.118;5.342;2023-08-12T06:55:26;18.60;99.90
16118;DHT22;8163;50.118;5.342;2023-08-12T06:57:53;18.60;99.90
16118;DHT22;8163;50.118;5.342;2023-08-12T07:00:20;18.70;99.90
16118;DHT22;8163;50.118;5.342;2023-08-12T07:02:47;18.70;99.90
16118;DHT22;8163;50.118;5.342;2023-08-12T07:05:16;18.70;99.90
16118;DHT22;8163;50.118;5.342;2023-08-12T07:07:43;18.70;99.90
16118;DHT22;8163;50.118;5.342;2023-08-12T07:10:10;18.70;99.90
16118;DHT22;8163;50.118;5.342;2023-08-12T07:12:37;18.60;99.90
16118;DHT22;8163;50.118;5.342;2023-08-12T07:15:05;18.70;99.90
16118;DHT22;8163;50.118;5.342;2023-08-12T07:17:33;18.60;99.90
16118;DHT22;8163;50.118;5.342;2023-08-12T07:20:00;18.60;99.90
16118;DHT22;8163;50.118;5.342;2023-08-12T07:22:29;18.60;99.90
16118;DHT22;8163;50.118;5.342;2023-08-12T07:24:56;18.70;99.90
16118;DHT22;8163;50.118;5.342;2023-08-12T07:27:25;18.60;99.90
16118;DHT22;8163;50.118;5.342;2023-08-12T07:29:53;18.60;99.90
16118;DHT22;8163;50.118;5.342;2023-08-12T07:32:20;18.60;99.90
16118;DHT22;8163;50.118;5.342;2023-08-12T07:34:48;18.60;99.90
16118;DHT22;8163;50.118;5.342;2023-08-12T07:37:15;18.60;99.90
16118;DHT22;8163;50.118;5.342;2023-08-12T07:39:43;18.60;99.90
16118;DHT22;8163;50.118;5.342;2023-08-12T07:42:10;18.60;99.90
16118;DHT22;8163;50.118;5.342;2023-08-12T07:44:37;18.60;99.90
16118;DHT22;8163;50.118;5.342;2023-08-12T07:47:05;18.50;99.90
16118;DHT22;8163;50.118;5.342;2023-08-12T07:49:32;18.50;99.90
16118;DHT22;8163;50.118;5.342;2023-08-12T07:51:59;18.50;99.90
16118;DHT22;8163;50.118;5.342;2023-08-12T07:54:26;18.60;99.90
16118;DHT22;8163;50.118;5.342;2023-08-12T07:56:54;18.60;99.90
16118;DHT22;8163;50.118;5.342;2023-08-12T07:59:21;18.60;99.90
16118;DHT22;8163;50.118;5.342;2023-08-12T08:01:49;18.70;99.90
16118;DHT22;8163;50.118;5.342;2023-08-12T08:04:16;18.80;99.90
16118;DHT22;8163;50.118;5.342;2023-08-12T08:06:43;18.80;99.90
16118;DHT22;8163;50.118;5.342;2023-08-12T08:09:10;18.90;99.90
16118;DHT22;8163;50.118;5.342;2023-08-12T08:11:37;18.90;99.90
16118;DHT22;8163;50.118;5.342;2023-08-12T08:14:05;19.00;99.90
16118;DHT22;8163;50.118;5.342;2023-08-12T08:16:33;18.90;99.90
16118;DHT22;8163;50.118;5.342;2023-08-12T08:19:00;19.00;99.90
16118;DHT22;8163;50.118;5.342;2023-08-12T08:21:27;19.20;99.90
16118;DHT22;8163;50.118;5.342;2023-08-12T08:23:55;19.30;99.90
16118;DHT22;8163;50.118;5.342;2023-08-12T08:26:22;19.30;99.90
16118;DHT22;8163;50.118;5.342;2023-08-12T08:28:49;19.40;99.90
16118;DHT22;8163;50.118;5.342;2023-08-12T08:31:17;19.40;99.90
16118;DHT22;8163;50.118;5.342;2023-08-12T08:33:44;19.40;99.90
16118;DHT22;8163;50.118;5.342;2023-08-12T08:36:12;19.40;99.90
16118;DHT22;8163;50.118;5.342;2023-08-12T08:38:39;19.30;99.90
16118;DHT22;8163;50.118;5.342;2023-08-12T08:41:06;19.40;99.90
16118;DHT22;8163;50.118;5.342;2023-08-12T08:43:36;19.50;99.90
16118;DHT22;8163;50.118;5.342;2023-08-12T08:46:03;19.60;99.90
16118;DHT22;8163;50.118;5.342;2023-08-12T08:48:33;19.60;99.90
16118;DHT22;8163;50.118;5.342;2023-08-12T08:51:03;19.60;99.90
16118;DHT22;8163;50.118;5.342;2023-08-12T08:53:30;19.60;99.90
16118;DHT22;8163;50.118;5.342;2023-08-12T08:55:58;19.70;99.90
16118;DHT22;8163;50.118;5.342;2023-08-12T08:58:26;19.80;99.90
16118;DHT22;8163;50.118;5.342;2023-08-12T09:00:53;19.90;99.90
16118;DHT22;8163;50.118;5.342;2023-08-12T09:03:21;19.80;99.90
16118;DHT22;8163;50.118;5.342;2023-08-12T09:05:50;19.70;99.90
16118;DHT22;8163;50.118;5.342;2023-08-12T09:08:18;19.60;99.90
16118;DHT22;8163;50.118;5.342;2023-08-12T09:10:47;19.60;99.90
16118;DHT22;8163;50.118;5.342;2023-08-12T09:13:15;19.60;99.90
16118;DHT22;8163;50.118;5.342;2023-08-12T09:15:44;19.60;99.90
16118;DHT22;8163;50.118;5.342;2023-08-12T09:18:11;19.60;99.90
16118;DHT22;8163;50.118;5.342;2023-08-12T09:20:38;19.70;99.90
16118;DHT22;8163;50.118;5.342;2023-08-12T09:23:07;19.70;99.90
16118;DHT22;8163;50.118;5.342;2023-08-12T09:25:41;19.90;99.90
16118;DHT22;8163;50.118;5.342;2023-08-12T09:28:09;19.90;99.90
16118;DHT22;8163;50.118;5.342;2023-08-12T09:30:37;20.00;99.90
16118;DHT22;8163;50.118;5.342;2023-08-12T09:33:05;20.10;99.90
16118;DHT22;8163;50.118;5.342;2023-08-12T09:35:37;20.30;99.90
16118;DHT22;8163;50.118;5.342;2023-08-12T09:38:07;20.40;99.90
16118;DHT22;8163;50.118;5.342;2023-08-12T09:40:35;20.50;99.90
16118;DHT22;8163;50.118;5.342;2023-08-12T09:43:03;20.60;99.90
16118;DHT22;8163;50.118;5.342;2023-08-12T09:45:31;20.80;99.90
16118;DHT22;8163;50.118;5.342;2023-08-12T09:47:58;20.90;99.90
16118;DHT22;8163;50.118;5.342;2023-08-12T09:50:26;21.10;99.90
16118;DHT22;8163;50.118;5.342;2023-08-12T09:52:54;21.10;99.90
16118;DHT22;8163;50.118;5.342;2023-08-12T09:55:24;21.20;99.90
16118;DHT22;8163;50.118;5.342;2023-08-12T09:57:53;21.30;99.90
16118;DHT22;8163;50.118;5.342;2023-08-12T10:00:22;21.60;99.90
16118;DHT22;8163;50.118;5.342;2023-08-12T10:02:51;22.00;99.90
16118;DHT22;8163;50.118;5.342;2023-08-12T10:05:21;22.20;99.90
16118;DHT22;8163;50.118;5.342;2023-08-12T10:07:49;22.30;99.90
16118;DHT22;8163;50.118;5.342;2023-08-12T10:10:17;22.50;99.90
16118;DHT22;8163;50.118;5.342;2023-08-12T10:12:46;23.00;99.90
16118;DHT22;8163;50.118;5.342;2023-08-12T10:15:14;23.20;99.90
16118;DHT22;8163;50.118;5.342;2023-08-12T10:17:42;23.30;99.90
16118;DHT22;8163;50.118;5.342;2023-08-12T10:20:13;23.10;99.90
16118;DHT22;8163;50.118;5.342;2023-08-12T10:22:43;23.10;99.90
16118;DHT22;8163;50.118;5.342;2023-08-12T10:25:13;23.30;99.90
16118;DHT22;8163;50.118;5.342;2023-08-12T11:02:27;23.00;99.90
16118;DHT22;8163;50.118;5.342;2023-08-12T11:04:56;22.70;99.90
16118;DHT22;8163;50.118;5.342;2023-08-12T11:07:31;22.90;99.90
16118;DHT22;8163;50.118;5.342;2023-08-12T11:10:03;22.90;99.90
16118;DHT22;8163;50.118;5.342;2023-08-12T11:12:33;22.90;99.90
16118;DHT22;8163;50.118;5.342;2023-08-12T11:15:01;22.90;99.90
16118;DHT22;8163;50.118;5.342;2023-08-12T11:17:32;22.80;99.90
16118;DHT22;8163;50.118;5.342;2023-08-12T11:20:03;22.60;99.90
16118;DHT22;8163;50.118;5.342;2023-08-12T11:22:32;22.50;99.90
16118;DHT22;8163;50.118;5.342;2023-08-12T11:25:00;22.60;99.90
16118;DHT22;8163;50.118;5.342;2023-08-12T11:27:28;22.50;99.90
16118;DHT22;8163;50.118;5.342;2023-08-12T11:29:55;22.50;99.90
16118;DHT22;8163;50.118;5.342;2023-08-12T11:32:22;22.50;99.90
16118;DHT22;8163;50.118;5.342;2023-08-12T11:34:51;22.90;99.90
16118;DHT22;8163;50.118;5.342;2023-08-12T11:37:18;23.20;99.90
16118;DHT22;8163;50.118;5.342;2023-08-12T11:39:45;23.30;99.90
16118;DHT22;8163;50.118;5.342;2023-08-12T11:42:12;23.40;99.90
16118;DHT22;8163;50.118;5.342;2023-08-12T11:44:40;23.40;99.90
16118;DHT22;8163;50.118;5.342;2023-08-12T11:47:07;23.40;99.90
16118;DHT22;8163;50.118;5.342;2023-08-12T11:49:35;23.10;99.90
16118;DHT22;8163;50.118;5.342;2023-08-12T11:52:04;22.70;99.90
16118;DHT22;8163;50.118;5.342;2023-08-12T11:54:31;22.50;99.90
16118;DHT22;8163;50.118;5.342;2023-08-12T11:56:59;22.30;99.90
16118;DHT22;8163;50.118;5.342;2023-08-12T11:59:26;22.10;99.90
16118;DHT22;8163;50.118;5.342;2023-08-12T12:01:54;22.10;99.90
16118;DHT22;8163;50.118;5.342;2023-08-12T12:04:22;22.00;99.90
16118;DHT22;8163;50.118;5.342;2023-08-12T12:06:49;21.90;99.90
16118;DHT22;8163;50.118;5.342;2023-08-12T12:09:17;21.70;99.90
16118;DHT22;8163;50.118;5.342;2023-08-12T12:11:45;21.70;99.90
16118;DHT22;8163;50.118;5.342;2023-08-12T12:14:13;21.60;99.90
16118;DHT22;8163;50.118;5.342;2023-08-12T12:16:41;21.60;99.90
16118;DHT22;8163;50.118;5.342;2023-08-12T12:19:16;21.50;99.90
16118;DHT22;8163;50.118;5.342;2023-08-12T12:21:46;21.40;99.90
16118;DHT22;8163;50.118;5.342;2023-08-12T12:24:13;21.40;99.90
16118;DHT22;8163;50.118;5.342;2023-08-12T12:26:43;21.40;99.90
16118;DHT22;8163;50.118;5.342;2023-08-12T12:29:10;21.40;99.90
16118;DHT22;8163;50.118;5.342;2023-08-12T12:31:41;21.40;99.90
16118;DHT22;8163;50.118;5.342;2023-08-12T12:34:08;21.30;99.90
16118;DHT22;8163;50.118;5.342;2023-08-12T12:36:37;21.30;99.90
16118;DHT22;8163;50.118;5.342;2023-08-12T12:39:05;21.30;99.90
16118;DHT22;8163;50.118;5.342;2023-08-12T12:41:32;21.30;99.90
16118;DHT22;8163;50.118;5.342;2023-08-12T12:44:01;21.20;99.90
16118;DHT22;8163;50.118;5.342;2023-08-12T12:46:29;21.10;99.90
16118;DHT22;8163;50.118;5.342;2023-08-12T12:48:56;21.10;99.90
16118;DHT22;8163;50.118;5.342;2023-08-12T12:51:23;21.10;99.90
16118;DHT22;8163;50.118;5.342;2023-08-12T12:53:50;21.30;99.90
16118;DHT22;8163;50.118;5.342;2023-08-12T12:56:18;22.00;99.90
16118;DHT22;8163;50.118;5.342;2023-08-12T12:58:45;22.50;99.90
16118;DHT22;8163;50.118;5.342;2023-08-12T13:01:13;22.90;99.90
16118;DHT22;8163;50.118;5.342;2023-08-12T13:03:40;23.20;99.90
16118;DHT22;8163;50.118;5.342;2023-08-12T13:06:07;23.80;99.90
16118;DHT22;8163;50.118;5.342;2023-08-12T13:08:34;24.10;99.90
16118;DHT22;8163;50.118;5.342;2023-08-12T13:11:02;24.20;99.90
16118;DHT22;8163;50.118;5.342;2023-08-12T13:13:29;24.10;99.90
16118;DHT22;8163;50.118;5.342;2023-08-12T13:15:56;23.90;99.90
16118;DHT22;8163;50.118;5.342;2023-08-12T13:18:24;23.60;99.90
16118;DHT22;8163;50.118;5.342;2023-08-12T13:20:52;23.50;99.90
16118;DHT22;8163;50.118;5.342;2023-08-12T13:23:19;23.40;99.90
16118;DHT22;8163;50.118;5.342;2023-08-12T13:25:46;23.40;99.90
16118;DHT22;8163;50.118;5.342;2023-08-12T13:28:14;23.20;99.90
16118;DHT22;8163;50.118;5.342;2023-08-12T13:30:41;23.30;99.90
16118;DHT22;8163;50.118;5.342;2023-08-12T13:33:09;23.30;99.90
16118;DHT22;8163;50.118;5.342;2023-08-12T13:35:37;23.20;99.90
16118;DHT22;8163;50.118;5.342;2023-08-12T13:38:04;23.30;99.90
16118;DHT22;8163;50.118;5.342;2023-08-12T13:40:31;23.30;99.90
16118;DHT22;8163;50.118;5.342;2023-08-12T13:42:59;23.30;99.90
16118;DHT22;8163;50.118;5.342;2023-08-12T13:45:26;23.30;99.90
16118;DHT22;8163;50.118;5.342;2023-08-12T13:47:53;23.10;99.90
16118;DHT22;8163;50.118;5.342;2023-08-12T13:50:21;22.90;99.90
16118;DHT22;8163;50.118;5.342;2023-08-12T13:52:50;22.80;99.90
16118;DHT22;8163;50.118;5.342;2023-08-12T13:55:17;22.80;99.90
16118;DHT22;8163;50.118;5.342;2023-08-12T13:57:45;23.00;99.90
16118;DHT22;8163;50.118;5.342;2023-08-12T14:00:12;23.40;99.90
16118;DHT22;8163;50.118;5.342;2023-08-12T14:02:40;23.60;99.90
16118;DHT22;8163;50.118;5.342;2023-08-12T14:05:08;23.70;99.90
16118;DHT22;8163;50.118;5.342;2023-08-12T14:07:36;23.80;99.90
16118;DHT22;8163;50.118;5.342;2023-08-12T14:10:06;23.70;99.90
16118;DHT22;8163;50.118;5.342;2023-08-12T14:12:34;23.50;99.90
16118;DHT22;8163;50.118;5.342;2023-08-12T14:15:01;23.40;99.90
16118;DHT22;8163;50.118;5.342;2023-08-12T14:17:28;23.30;99.90
16118;DHT22;8163;50.118;5.342;2023-08-12T14:19:55;23.30;99.90
16118;DHT22;8163;50.118;5.342;2023-08-12T14:22:24;23.50;99.90
16118;DHT22;8163;50.118;5.342;2023-08-12T14:24:51;23.70;99.90
16118;DHT22;8163;50.118;5.342;2023-08-12T14:27:20;23.90;99.90
16118;DHT22;8163;50.118;5.342;2023-08-12T14:29:47;23.70;99.90
16118;DHT22;8163;50.118;5.342;2023-08-12T14:32:15;23.60;99.90
16118;DHT22;8163;50.118;5.342;2023-08-12T14:34:44;23.50;99.90
16118;DHT22;8163;50.118;5.342;2023-08-12T14:37:12;23.60;99.90
16118;DHT22;8163;50.118;5.342;2023-08-12T14:39:39;23.60;99.90
16118;DHT22;8163;50.118;5.342;2023-08-12T14:42:07;23.50;99.90
16118;DHT22;8163;50.118;5.342;2023-08-12T14:44:37;23.40;99.90
16118;DHT22;8163;50.118;5.342;2023-08-12T14:47:05;23.30;99.90
16118;DHT22;8163;50.118;5.342;2023-08-12T14:49:32;23.40;99.90
16118;DHT22;8163;50.118;5.342;2023-08-12T14:51:59;23.50;99.90
16118;DHT22;8163;50.118;5.342;2023-08-12T14:54:27;23.50;99.90
16118;DHT22;8163;50.118;5.342;2023-08-12T14:56:54;23.60;99.90
16118;DHT22;8163;50.118;5.342;2023-08-12T14:59:21;23.60;99.90
16118;DHT22;8163;50.118;5.342;2023-08-12T15:01:49;23.60;99.90
16118;DHT22;8163;50.118;5.342;2023-08-12T15:04:17;23.70;99.90
16118;DHT22;8163;50.118;5.342;2023-08-12T15:06:44;23.60;99.90
16118;DHT22;8163;50.118;5.342;2023-08-12T15:09:11;23.70;99.90
16118;DHT22;8163;50.118;5.342;2023-08-12T15:11:39;23.90;99.90
16118;DHT22;8163;50.118;5.342;2023-08-12T15:14:06;23.80;99.90
16118;DHT22;8163;50.118;5.342;2023-08-12T15:16:33;23.80;99.90
16118;DHT22;8163;50.118;5.342;2023-08-12T15:19:02;23.70;99.90
16118;DHT22;8163;50.118;5.342;2023-08-12T15:21:29;23.60;99.90
16118;DHT22;8163;50.118;5.342;2023-08-12T15:23:57;23.60;99.90
16118;DHT22;8163;50.118;5.342;2023-08-12T15:26:24;23.70;99.90
16118;DHT22;8163;50.118;5.342;2023-08-12T15:28:51;23.70;99.90
16118;DHT22;8163;50.118;5.342;2023-08-12T15:31:18;23.80;99.90
16118;DHT22;8163;50.118;5.342;2023-08-12T15:33:45;23.90;99.90
16118;DHT22;8163;50.118;5.342;2023-08-12T15:36:14;23.90;99.90
16118;DHT22;8163;50.118;5.342;2023-08-12T15:38:42;23.80;99.90
16118;DHT22;8163;50.118;5.342;2023-08-12T15:41:13;23.80;99.90
16118;DHT22;8163;50.118;5.342;2023-08-12T15:43:40;23.80;99.90
16118;DHT22;8163;50.118;5.342;2023-08-12T15:46:08;23.90;99.90
16118;DHT22;8163;50.118;5.342;2023-08-12T15:48:36;24.00;99.90
16118;DHT22;8163;50.118;5.342;2023-08-12T15:51:03;23.90;99.90
16118;DHT22;8163;50.118;5.342;2023-08-12T15:53:32;23.80;99.90
16118;DHT22;8163;50.118;5.342;2023-08-12T15:55:59;23.80;99.90
16118;DHT22;8163;50.118;5.342;2023-08-12T15:58:27;23.80;99.90
16118;DHT22;8163;50.118;5.342;2023-08-12T16:00:54;23.80;99.90
16118;DHT22;8163;50.118;5.342;2023-08-12T16:03:21;23.60;99.90
16118;DHT22;8163;50.118;5.342;2023-08-12T16:05:48;23.60;99.90
16118;DHT22;8163;50.118;5.342;2023-08-12T16:08:16;23.50;99.90
16118;DHT22;8163;50.118;5.342;2023-08-12T16:10:45;23.60;99.90
16118;DHT22;8163;50.118;5.342;2023-08-12T16:13:12;23.50;99.90
16118;DHT22;8163;50.118;5.342;2023-08-12T16:15:40;23.40;99.90
16118;DHT22;8163;50.118;5.342;2023-08-12T16:18:07;23.20;99.90
16118;DHT22;8163;50.118;5.342;2023-08-12T16:20:34;23.10;99.90
16118;DHT22;8163;50.118;5.342;2023-08-12T16:23:02;23.00;99.90
16118;DHT22;8163;50.118;5.342;2023-08-12T16:25:30;23.00;99.90